createdAt,value
2023-01-01T00:00:24.746Z,100.00
2023-01-01T00:03:12.926Z,100.00
2023-01-01T00:05:40.722Z,100.00
2023-01-01T00:08:09.005Z,100.00
2023-01-01T00:10:38.005Z,100.00
2023-01-01T00:13:06.425Z,100.00
2023-01-01T00:15:34.172Z,100.00
2023-01-01T00:18:02.252Z,100.00
2023-01-01T00:20:35.244Z,100.00
2023-01-01T00:23:04.089Z,100.00
2023-01-01T00:25:32.727Z,100.00
2023-01-01T00:28:01.334Z,100.00
2023-01-01T00:30:29.414Z,100.00
2023-01-01T00:32:57.695Z,100.00
2023-01-01T00:35:26.328Z,100.00
2023-01-01T00:37:54.792Z,100.00
2023-01-01T00:40:23.142Z,100.00
2023-01-01T00:42:51.222Z,100.00
2023-01-01T00:45:22.205Z,100.00
2023-01-01T00:47:52.167Z,100.00
2023-01-01T00:50:21.803Z,100.00
2023-01-01T00:52:50.326Z,100.00
2023-01-01T00:55:18.430Z,100.00
2023-01-01T00:57:46.849Z,100.00
2023-01-01T01:00:15.538Z,100.00
2023-01-01T01:02:44.211Z,100.00
2023-01-01T01:05:12.527Z,100.00
2023-01-01T01:07:41.765Z,100.00
2023-01-01T01:10:09.908Z,100.00
2023-01-01T01:12:38.655Z,100.00
2023-01-01T01:15:07.444Z,100.00
2023-01-01T01:17:37.785Z,100.00
2023-01-01T01:20:06.588Z,100.00
2023-01-01T01:22:35.077Z,100.00
2023-01-01T01:25:03.562Z,100.00
2023-01-01T01:27:32.152Z,100.00
2023-01-01T01:30:00.056Z,100.00
2023-01-01T01:32:27.903Z,100.00
2023-01-01T01:34:56.198Z,100.00
2023-01-01T01:37:24.024Z,100.00
2023-01-01T01:39:54.197Z,100.00
2023-01-01T01:42:22.656Z,100.00
2023-01-01T01:45:02.664Z,100.00
2023-01-01T01:47:50.911Z,100.00
2023-01-01T01:50:32.375Z,100.00
2023-01-01T01:53:24.552Z,100.00
2023-01-01T01:56:00.096Z,100.00
2023-01-01T01:58:30.010Z,100.00
2023-01-01T02:00:58.951Z,100.00
2023-01-01T02:03:37.194Z,100.00
2023-01-01T02:06:06.827Z,100.00
2023-01-01T02:08:36.182Z,100.00
2023-01-01T02:11:04.908Z,100.00
2023-01-01T02:13:32.876Z,100.00
2023-01-01T02:16:05.681Z,100.00
2023-01-01T02:19:08.563Z,100.00
2023-01-01T02:21:49.813Z,100.00
2023-01-01T02:24:36.352Z,100.00
2023-01-01T02:27:09.984Z,100.00
2023-01-01T02:29:42.498Z,100.00
2023-01-01T02:32:19.002Z,100.00
2023-01-01T02:34:56.265Z,100.00
2023-01-01T02:37:26.172Z,100.00
2023-01-01T02:39:58.547Z,100.00
2023-01-01T02:42:29.187Z,100.00
2023-01-01T02:44:58.625Z,100.00
2023-01-01T02:47:26.844Z,100.00
2023-01-01T02:49:59.745Z,100.00
2023-01-01T02:52:50.118Z,100.00
2023-01-01T02:55:20.916Z,100.00
2023-01-01T02:58:24.842Z,100.00
2023-01-01T03:00:58.496Z,100.00
2023-01-01T03:03:39.709Z,100.00
2023-01-01T03:06:55.254Z,100.00
2023-01-01T03:09:43.913Z,100.00
2023-01-01T03:12:23.514Z,100.00
2023-01-01T03:14:59.774Z,100.00
2023-01-01T03:17:33.718Z,100.00
2023-01-01T03:20:05.798Z,100.00
2023-01-01T03:25:08.432Z,100.00
2023-01-01T03:27:43.110Z,100.00
2023-01-01T03:30:12.505Z,100.00
2023-01-01T03:33:08.296Z,100.00
2023-01-01T03:35:40.869Z,100.00
2023-01-01T03:38:13.724Z,100.00
2023-01-01T03:40:44.023Z,100.00
2023-01-01T03:43:22.589Z,100.00
2023-01-01T03:45:51.320Z,100.00
2023-01-01T03:48:19.791Z,100.00
2023-01-01T03:51:08.951Z,100.00
2023-01-01T03:53:43.927Z,100.00
2023-01-01T03:56:36.184Z,100.00
2023-01-01T03:59:22.595Z,100.00
2023-01-01T04:01:58.143Z,100.00
2023-01-01T04:04:29.656Z,100.00
2023-01-01T04:07:02.039Z,100.00
2023-01-01T04:09:38.645Z,100.00
2023-01-01T04:12:07.338Z,100.00
2023-01-01T04:14:42.880Z,100.00
2023-01-01T04:17:12.283Z,100.00
2023-01-01T04:19:40.526Z,100.00
2023-01-01T04:22:08.954Z,100.00
2023-01-01T04:24:37.521Z,100.00
2023-01-01T04:27:06.114Z,100.00
2023-01-01T04:29:34.498Z,100.00
2023-01-01T04:32:02.512Z,100.00
2023-01-01T04:34:30.835Z,100.00
2023-01-01T04:36:58.800Z,100.00
2023-01-01T04:39:28.230Z,100.00
2023-01-01T04:41:56.764Z,100.00
2023-01-01T04:44:24.529Z,100.00
2023-01-01T04:46:56.924Z,100.00
2023-01-01T04:49:28.021Z,100.00
2023-01-01T04:51:56.400Z,100.00
2023-01-01T04:54:24.212Z,100.00
2023-01-01T04:56:52.759Z,100.00
2023-01-01T04:59:20.417Z,100.00
2023-01-01T05:01:49.880Z,100.00
2023-01-01T05:04:18.326Z,100.00
2023-01-01T05:06:47.958Z,100.00
2023-01-01T05:09:15.813Z,100.00
2023-01-01T05:11:44.083Z,100.00
2023-01-01T05:14:11.870Z,100.00
2023-01-01T05:16:40.649Z,100.00
2023-01-01T05:19:09.205Z,100.00
2023-01-01T05:21:39.827Z,100.00
2023-01-01T05:24:10.319Z,100.00
2023-01-01T05:26:42.096Z,100.00
2023-01-01T05:29:16.160Z,100.00
2023-01-01T05:34:59.983Z,100.00
2023-01-01T05:37:28.094Z,100.00
2023-01-01T05:39:56.513Z,100.00
2023-01-01T05:42:24.787Z,100.00
2023-01-01T05:44:52.597Z,100.00
2023-01-01T05:47:22.964Z,100.00
2023-01-01T05:49:50.831Z,100.00
2023-01-01T05:52:23.052Z,100.00
2023-01-01T05:54:54.752Z,100.00
2023-01-01T05:57:23.324Z,100.00
2023-01-01T05:59:51.055Z,100.00
2023-01-01T06:02:19.585Z,100.00
2023-01-01T06:04:47.411Z,100.00
2023-01-01T06:07:15.974Z,100.00
2023-01-01T06:09:43.717Z,100.00
2023-01-01T06:12:12.183Z,100.00
2023-01-01T06:14:39.964Z,100.00
2023-01-01T06:17:08.275Z,100.00
2023-01-01T06:19:36.045Z,100.00
2023-01-01T06:22:04.018Z,100.00
2023-01-01T06:24:38.646Z,100.00
2023-01-01T06:27:07.847Z,100.00
2023-01-01T06:29:35.683Z,100.00
2023-01-01T06:32:04.282Z,100.00
2023-01-01T06:34:31.944Z,100.00
2023-01-01T06:37:06.691Z,100.00
2023-01-01T06:39:35.001Z,100.00
2023-01-01T06:42:03.442Z,100.00
2023-01-01T06:44:31.138Z,100.00
2023-01-01T06:46:59.555Z,100.00
2023-01-01T06:49:27.310Z,100.00
2023-01-01T06:51:55.941Z,100.00
2023-01-01T06:54:24.016Z,100.00
2023-01-01T06:56:52.213Z,100.00
2023-01-01T06:59:20.184Z,100.00
2023-01-01T07:01:48.639Z,100.00
2023-01-01T07:04:16.983Z,100.00
2023-01-01T07:06:45.282Z,100.00
2023-01-01T07:09:13.137Z,100.00
2023-01-01T07:11:41.661Z,100.00
2023-01-01T07:14:09.739Z,100.00
2023-01-01T07:16:38.361Z,100.00
2023-01-01T07:19:06.127Z,100.00
2023-01-01T07:21:36.348Z,100.00
2023-01-01T07:24:05.992Z,100.00
2023-01-01T07:26:34.428Z,100.00
2023-01-01T07:29:07.546Z,100.00
2023-01-01T07:31:38.758Z,100.00
2023-01-01T07:34:08.416Z,100.00
2023-01-01T07:36:36.801Z,100.00
2023-01-01T07:39:05.268Z,100.00
2023-01-01T07:41:33.613Z,100.00
2023-01-01T07:44:01.538Z,100.00
2023-01-01T07:46:29.588Z,100.00
2023-01-01T07:48:59.037Z,100.00
2023-01-01T07:51:27.882Z,100.00
2023-01-01T07:53:58.234Z,100.00
2023-01-01T07:56:28.772Z,100.00
2023-01-01T07:58:56.480Z,100.00
2023-01-01T08:01:24.699Z,100.00
2023-01-01T08:03:53.239Z,100.00
2023-01-01T08:06:22.669Z,100.00
2023-01-01T08:08:50.547Z,100.00
2023-01-01T08:11:18.926Z,99.50
2023-01-01T08:13:46.737Z,99.80
2023-01-01T08:16:15.080Z,98.73
2023-01-01T08:18:43.014Z,98.75
2023-01-01T08:21:11.552Z,97.66
2023-01-01T08:23:39.322Z,96.80
2023-01-01T08:26:07.911Z,96.49
2023-01-01T08:28:36.556Z,95.52
2023-01-01T08:31:05.208Z,94.74
2023-01-01T08:33:33.119Z,94.33
2023-01-01T08:36:01.563Z,93.56
2023-01-01T08:38:29.159Z,93.53
2023-01-01T08:40:57.134Z,92.92
2023-01-01T08:43:25.623Z,92.17
2023-01-01T08:45:53.837Z,91.50
2023-01-01T08:48:27.177Z,90.88
2023-01-01T08:51:00.577Z,90.04
2023-01-01T08:53:30.255Z,90.05
2023-01-01T08:56:00.451Z,89.42
2023-01-01T08:58:28.665Z,88.70
2023-01-01T09:00:57.283Z,88.54
2023-01-01T09:03:25.151Z,87.15
2023-01-01T09:05:54.546Z,86.47
2023-01-01T09:08:23.353Z,86.29
2023-01-01T09:10:52.009Z,83.95
2023-01-01T09:13:22.375Z,83.33
2023-01-01T09:15:50.396Z,81.88
2023-01-01T09:18:18.762Z,81.69
2023-01-01T09:20:47.383Z,81.19
2023-01-01T09:23:15.284Z,80.33
2023-01-01T09:25:43.231Z,79.93
2023-01-01T09:28:15.018Z,80.12
2023-01-01T09:30:43.935Z,80.57
2023-01-01T09:33:11.701Z,80.11
2023-01-01T09:35:44.388Z,80.27
2023-01-01T09:38:13.105Z,79.12
2023-01-01T09:41:00.171Z,79.76
2023-01-01T09:44:07.274Z,78.97
2023-01-01T09:46:37.050Z,78.87
2023-01-01T09:49:10.804Z,78.54
2023-01-01T09:51:48.706Z,78.81
2023-01-01T09:54:38.311Z,78.46
2023-01-01T09:57:16.318Z,78.33
2023-01-01T09:59:47.578Z,78.58
2023-01-01T10:02:53.865Z,78.01
2023-01-01T10:05:49.775Z,77.51
2023-01-01T10:09:06.391Z,77.68
2023-01-01T10:12:04.800Z,77.26
2023-01-01T10:14:35.065Z,77.41
2023-01-01T10:17:06.991Z,77.32
2023-01-01T10:19:42.503Z,77.72
2023-01-01T10:22:23.333Z,76.66
2023-01-01T10:24:57.043Z,76.68
2023-01-01T10:27:35.060Z,76.56
2023-01-01T10:30:14.007Z,74.94
2023-01-01T10:32:44.028Z,74.64
2023-01-01T10:35:36.329Z,73.32
2023-01-01T10:38:05.733Z,72.74
2023-01-01T10:40:34.336Z,72.32
2023-01-01T10:43:04.170Z,71.54
2023-01-01T10:45:47.733Z,71.57
2023-01-01T10:48:21.437Z,71.27
2023-01-01T10:50:58.351Z,71.58
2023-01-01T10:53:32.949Z,70.81
2023-01-01T10:56:24.379Z,71.02
2023-01-01T10:58:57.239Z,70.05
2023-01-01T11:01:33.193Z,70.19
2023-01-01T11:04:14.232Z,69.56
2023-01-01T11:06:43.656Z,69.04
2023-01-01T11:09:26.959Z,68.24
2023-01-01T11:12:02.087Z,68.31
2023-01-01T11:14:41.819Z,68.29
2023-01-01T11:17:10.551Z,67.38
2023-01-01T11:19:43.003Z,66.75
2023-01-01T11:22:47.074Z,66.11
2023-01-01T11:25:21.705Z,66.41
2023-01-01T11:27:50.959Z,66.70
2023-01-01T11:30:29.632Z,66.11
2023-01-01T11:33:02.322Z,66.43
2023-01-01T11:35:33.978Z,65.74
2023-01-01T11:38:03.567Z,65.98
2023-01-01T11:40:38.476Z,66.09
2023-01-01T11:43:08.747Z,65.54
2023-01-01T11:45:42.080Z,65.52
2023-01-01T11:48:15.063Z,65.10
2023-01-01T11:50:54.475Z,64.22
2023-01-01T11:53:22.883Z,64.18
2023-01-01T11:56:08.436Z,64.44
2023-01-01T11:58:36.934Z,64.87
2023-01-01T12:01:10.987Z,64.18
2023-01-01T12:03:54.528Z,63.54
2023-01-01T12:06:26.984Z,63.49
2023-01-01T12:09:02.241Z,63.33
2023-01-01T12:11:53.763Z,62.84
2023-01-01T12:14:32.755Z,62.74
2023-01-01T12:17:05.682Z,62.44
2023-01-01T12:19:56.058Z,62.18
2023-01-01T12:22:24.640Z,62.87
2023-01-01T12:24:53.215Z,61.98
2023-01-01T12:27:48.617Z,62.40
2023-01-01T12:30:48.571Z,63.09
2023-01-01T12:33:39.278Z,63.06
2023-01-01T12:36:43.423Z,62.37
2023-01-01T12:39:32.951Z,63.62
2023-01-01T12:42:18.686Z,63.57
2023-01-01T12:45:02.466Z,63.48
2023-01-01T12:48:04.013Z,63.86
2023-01-01T12:50:57.195Z,64.78
2023-01-01T12:53:46.581Z,64.63
2023-01-01T12:56:23.132Z,64.71
2023-01-01T12:59:19.479Z,65.18
2023-01-01T13:01:48.251Z,65.77
2023-01-01T13:04:20.369Z,66.13
2023-01-01T13:06:51.283Z,66.12
2023-01-01T13:09:22.048Z,66.86
2023-01-01T13:12:04.620Z,66.92
2023-01-01T13:14:39.964Z,67.58
2023-01-01T13:17:27.433Z,67.76
2023-01-01T13:20:06.687Z,68.40
2023-01-01T13:22:34.642Z,68.21
2023-01-01T13:25:05.173Z,68.72
2023-01-01T13:28:01.476Z,69.30
2023-01-01T13:30:36.555Z,69.52
2023-01-01T13:33:30.100Z,69.97
2023-01-01T13:36:19.322Z,70.09
2023-01-01T13:38:54.744Z,70.55
2023-01-01T13:41:40.066Z,70.57
2023-01-01T13:44:08.891Z,70.49
2023-01-01T13:46:52.404Z,70.52
2023-01-01T13:49:45.682Z,71.00
2023-01-01T13:52:47.733Z,70.99
2023-01-01T13:55:56.461Z,71.31
2023-01-01T13:58:27.931Z,72.03
2023-01-01T14:01:08.377Z,72.23
2023-01-01T14:03:42.021Z,72.81
2023-01-01T14:06:35.310Z,72.80
2023-01-01T14:09:14.679Z,72.99
2023-01-01T14:11:42.483Z,73.48
2023-01-01T14:14:31.707Z,73.61
2023-01-01T14:17:01.580Z,74.35
2023-01-01T14:19:30.198Z,74.70
2023-01-01T14:21:58.500Z,74.73
2023-01-01T14:24:26.836Z,74.94
2023-01-01T14:26:55.945Z,75.35
2023-01-01T14:29:30.446Z,75.21
2023-01-01T14:32:00.174Z,75.23
2023-01-01T14:34:32.943Z,75.65
2023-01-01T14:37:02.590Z,75.52
2023-01-01T14:39:35.687Z,75.76
2023-01-01T14:42:08.684Z,76.29
2023-01-01T14:44:40.090Z,76.76
2023-01-01T14:47:28.154Z,76.86
2023-01-01T14:50:13.929Z,76.78
2023-01-01T14:52:42.335Z,76.76
2023-01-01T14:55:18.047Z,77.04
2023-01-01T14:57:56.527Z,77.33
2023-01-01T15:00:27.975Z,77.50
2023-01-01T15:02:55.560Z,77.97
2023-01-01T15:05:23.504Z,77.90
2023-01-01T15:07:59.576Z,78.19
2023-01-01T15:10:28.923Z,78.37
2023-01-01T15:12:58.029Z,78.45
2023-01-01T15:15:54.565Z,78.81
2023-01-01T15:18:41.866Z,78.70
2023-01-01T15:21:37.732Z,78.98
2023-01-01T15:24:15.323Z,79.59
2023-01-01T15:26:57.819Z,80.12
2023-01-01T15:29:39.962Z,80.88
2023-01-01T15:32:11.244Z,81.38
2023-01-01T15:34:53.668Z,81.96
2023-01-01T15:37:27.379Z,82.40
2023-01-01T15:39:58.186Z,82.88
2023-01-01T15:42:37.487Z,83.55
2023-01-01T15:45:23.348Z,83.88
2023-01-01T15:47:52.545Z,84.45
2023-01-01T15:50:29.405Z,84.81
2023-01-01T15:53:08.642Z,85.58
2023-01-01T15:55:37.465Z,86.08
2023-01-01T15:58:05.110Z,86.70
2023-01-01T16:00:36.105Z,87.08
2023-01-01T16:03:21.514Z,87.39
2023-01-01T16:05:51.231Z,88.19
2023-01-01T16:08:20.336Z,88.61
2023-01-01T16:10:51.589Z,89.16
2023-01-01T16:13:19.588Z,90.13
2023-01-01T16:15:54.895Z,90.12
2023-01-01T16:18:26.609Z,90.85
2023-01-01T16:20:55.148Z,90.90
2023-01-01T16:23:23.140Z,91.30
2023-01-01T16:25:50.473Z,91.86
2023-01-01T16:28:18.237Z,92.05
2023-01-01T16:30:47.268Z,92.90
2023-01-01T16:33:17.282Z,93.08
2023-01-01T16:35:45.024Z,93.43
2023-01-01T16:38:12.538Z,93.68
2023-01-01T16:40:39.985Z,94.12
2023-01-01T16:43:15.785Z,94.76
2023-01-01T16:45:44.163Z,95.70
2023-01-01T16:48:12.135Z,95.40
2023-01-01T16:50:39.515Z,95.77
2023-01-01T16:53:07.062Z,96.52
2023-01-01T16:55:34.587Z,96.89
2023-01-01T16:58:38.622Z,96.90
2023-01-01T17:00:49.788Z,97.54
2023-01-01T17:03:17.463Z,97.75
2023-01-01T17:05:44.919Z,97.59
2023-01-01T17:08:12.623Z,98.07
2023-01-01T17:10:40.078Z,98.32
2023-01-01T17:13:07.861Z,98.63
2023-01-01T17:15:35.352Z,98.68
2023-01-01T17:18:03.026Z,98.82
2023-01-01T17:20:30.578Z,99.49
2023-01-01T17:22:58.232Z,99.76
2023-01-01T17:25:25.679Z,99.83
2023-01-01T17:27:53.341Z,99.90
2023-01-01T17:30:20.631Z,100.00
2023-01-01T17:32:48.240Z,100.00
2023-01-01T17:35:15.699Z,100.00
2023-01-01T17:37:43.372Z,100.00
2023-01-01T17:40:11.905Z,100.00
2023-01-01T17:42:40.033Z,100.00
2023-01-01T17:45:08.423Z,100.00
2023-01-01T17:47:36.079Z,100.00
2023-01-01T17:50:03.767Z,100.00
2023-01-01T17:52:31.628Z,100.00
2023-01-01T17:54:59.238Z,100.00
2023-01-01T17:57:27.093Z,100.00
2023-01-01T17:59:59.008Z,100.00
2023-01-01T18:02:27.004Z,100.00
2023-01-01T18:04:54.922Z,100.00
2023-01-01T18:07:22.508Z,100.00
2023-01-01T18:09:49.795Z,100.00
2023-01-01T18:12:17.581Z,100.00
2023-01-01T18:14:44.715Z,100.00
2023-01-01T18:17:12.721Z,100.00
2023-01-01T18:19:40.144Z,100.00
2023-01-01T18:22:07.888Z,100.00
2023-01-01T18:24:35.964Z,100.00
2023-01-01T18:27:03.833Z,100.00
2023-01-01T18:29:31.209Z,100.00
2023-01-01T18:31:58.694Z,100.00
2023-01-01T18:34:26.757Z,100.00
2023-01-01T18:36:56.133Z,100.00
2023-01-01T18:39:33.594Z,100.00
2023-01-01T18:42:38.210Z,100.00
2023-01-01T18:45:24.404Z,100.00
2023-01-01T18:47:52.267Z,100.00
2023-01-01T18:50:25.167Z,100.00
2023-01-01T18:52:56.453Z,100.00
2023-01-01T18:55:28.284Z,100.00
2023-01-01T18:58:00.472Z,100.00
2023-01-01T19:00:31.074Z,100.00
2023-01-01T19:03:03.854Z,100.00
2023-01-01T19:05:34.770Z,100.00
2023-01-01T19:08:08.894Z,100.00
2023-01-01T19:10:53.205Z,100.00
2023-01-01T19:13:25.328Z,100.00
2023-01-01T19:16:03.610Z,100.00
2023-01-01T19:18:33.800Z,100.00
2023-01-01T19:21:08.028Z,100.00
2023-01-01T19:23:39.158Z,100.00
2023-01-01T19:26:40.895Z,100.00
2023-01-01T19:29:19.418Z,100.00
2023-01-01T19:31:49.028Z,100.00
2023-01-01T19:34:18.126Z,100.00
2023-01-01T19:36:46.680Z,100.00
2023-01-01T19:39:15.753Z,100.00
2023-01-01T19:41:43.991Z,100.00
2023-01-01T19:44:12.470Z,100.00
2023-01-01T19:46:40.299Z,100.00
2023-01-01T19:49:11.133Z,100.00
2023-01-01T19:51:46.366Z,100.00
2023-01-01T19:54:15.652Z,100.00
2023-01-01T19:56:48.228Z,100.00
2023-01-01T19:59:18.566Z,100.00
2023-01-01T20:01:46.095Z,100.00
2023-01-01T20:04:17.373Z,100.00
2023-01-01T20:06:45.773Z,100.00
2023-01-01T20:09:14.597Z,100.00
2023-01-01T20:11:50.666Z,100.00
2023-01-01T20:14:22.789Z,100.00
2023-01-01T20:16:51.565Z,100.00
2023-01-01T20:19:27.981Z,100.00
2023-01-01T20:22:18.051Z,100.00
2023-01-01T20:24:49.733Z,100.00
2023-01-01T20:27:25.134Z,100.00
2023-01-01T20:29:57.156Z,100.00
2023-01-01T20:32:28.612Z,100.00
2023-01-01T20:34:56.440Z,100.00
2023-01-01T20:37:42.067Z,100.00
2023-01-01T20:40:11.522Z,100.00
2023-01-01T20:42:39.000Z,100.00
2023-01-01T20:45:07.901Z,100.00
2023-01-01T20:47:36.906Z,100.00
2023-01-01T20:50:05.333Z,100.00
2023-01-01T20:52:32.603Z,100.00
2023-01-01T20:55:00.188Z,100.00
2023-01-01T20:57:27.962Z,100.00
2023-01-01T20:59:55.848Z,100.00
2023-01-01T21:02:23.491Z,100.00
2023-01-01T21:04:51.710Z,100.00
2023-01-01T21:07:18.980Z,100.00
2023-01-01T21:09:47.009Z,100.00
2023-01-01T21:12:14.410Z,100.00
2023-01-01T21:14:42.405Z,100.00
2023-01-01T21:17:29.505Z,100.00
2023-01-01T21:19:59.941Z,100.00
2023-01-01T21:22:28.106Z,100.00
2023-01-01T21:25:16.916Z,100.00
2023-01-01T21:27:44.813Z,100.00
2023-01-01T21:30:13.438Z,100.00
2023-01-01T21:32:46.543Z,100.00
2023-01-01T21:35:23.566Z,100.00
2023-01-01T21:37:53.519Z,100.00
2023-01-01T21:40:59.642Z,100.00
2023-01-01T21:43:30.023Z,100.00
2023-01-01T21:46:36.932Z,100.00
2023-01-01T21:49:22.912Z,100.00
2023-01-01T21:51:55.030Z,100.00
2023-01-01T21:54:33.679Z,100.00
2023-01-01T21:57:06.623Z,100.00
2023-01-01T21:59:36.836Z,100.00
2023-01-01T22:02:05.751Z,100.00
2023-01-01T22:04:51.860Z,100.00
2023-01-01T22:10:25.366Z,100.00
2023-01-01T22:12:57.708Z,100.00
2023-01-01T22:15:31.236Z,100.00
2023-01-01T22:18:19.334Z,100.00
2023-01-01T22:20:47.108Z,100.00
2023-01-01T22:23:24.412Z,100.00
2023-01-01T22:25:52.472Z,100.00
2023-01-01T22:28:26.172Z,100.00
2023-01-01T22:30:55.739Z,100.00
2023-01-01T22:33:28.498Z,100.00
2023-01-01T22:35:56.948Z,100.00
2023-01-01T22:38:32.665Z,100.00
2023-01-01T22:41:00.286Z,100.00
2023-01-01T22:43:39.774Z,100.00
2023-01-01T22:46:39.469Z,100.00
2023-01-01T22:49:20.316Z,100.00
2023-01-01T22:51:47.895Z,100.00
2023-01-01T22:54:15.597Z,100.00
2023-01-01T22:56:42.858Z,100.00
2023-01-01T22:59:10.264Z,100.00
2023-01-01T23:01:37.987Z,100.00
2023-01-01T23:04:05.484Z,100.00
2023-01-01T23:06:33.411Z,100.00
2023-01-01T23:09:01.186Z,100.00
2023-01-01T23:11:28.657Z,100.00
2023-01-01T23:14:14.582Z,100.00
2023-01-01T23:16:41.862Z,100.00
2023-01-01T23:19:09.471Z,100.00
2023-01-01T23:21:36.880Z,100.00
2023-01-01T23:24:06.614Z,100.00
2023-01-01T23:26:34.019Z,100.00
2023-01-01T23:29:02.089Z,100.00
2023-01-01T23:31:29.721Z,100.00
2023-01-01T23:33:57.771Z,100.00
2023-01-01T23:36:25.900Z,100.00
2023-01-01T23:38:53.595Z,100.00
2023-01-01T23:41:20.989Z,100.00
2023-01-01T23:43:48.844Z,100.00
2023-01-01T23:46:18.578Z,100.00
2023-01-01T23:48:47.246Z,100.00
2023-01-01T23:51:15.079Z,100.00
2023-01-01T23:53:42.735Z,100.00
2023-01-01T23:56:10.059Z,100.00
2023-01-01T23:58:37.603Z,100.00
